Terminal Aerodrome Forecast
Issued by NWS North Platte, NE

Current Version | Previous Version | Text Only | Print | Product List | Glossary On
Versions: 1 2 3 4 5 6 7 8 9 10 11 12 13 14 15 16
486
FTUS43 KLBF 191724
TAFLBF
TAF
KLBF 191724Z 1918/2018 01012KT P6SM OVC020
     FM200400 02013KT 4SM -SN OVC020
     FM200900 35013KT P6SM OVC015
     FM201400 34012G21KT P6SM BKN040
     FM201700 34012G19KT P6SM SCT110=

USA.gov is the U.S. government's official web portal to all federal, state and local government web resources and services.